createdAt,value
2019-03-08T00:00:25.268Z,6.60
2019-03-08T00:05:22.386Z,5.90
2019-03-08T00:10:19.402Z,6.07
2019-03-08T00:15:16.487Z,6.00
2019-03-08T00:20:13.531Z,6.47
2019-03-08T00:25:13.558Z,5.13
2019-03-08T00:30:13.595Z,5.63
2019-03-08T00:35:11.343Z,5.67
2019-03-08T00:40:12.992Z,6.03
2019-03-08T00:45:16.939Z,5.50
2019-03-08T00:50:13.940Z,5.77
2019-03-08T00:55:12.026Z,6.20
2019-03-08T01:00:23.096Z,5.00
2019-03-08T01:05:20.487Z,5.67
2019-03-08T01:10:20.740Z,5.50
2019-03-08T01:15:17.871Z,5.87
2019-03-08T01:20:19.131Z,5.47
2019-03-08T01:25:16.348Z,4.23
2019-03-08T01:30:13.415Z,6.20
2019-03-08T01:35:10.351Z,6.47
2019-03-08T01:40:07.499Z,5.00
2019-03-08T01:45:06.584Z,5.23
2019-03-08T01:50:06.068Z,5.00
2019-03-08T01:55:05.024Z,5.63
2019-03-08T02:00:02.707Z,4.97
2019-03-08T02:04:59.730Z,5.27
2019-03-08T02:09:56.781Z,4.87
2019-03-08T02:14:53.714Z,6.20
2019-03-08T02:19:50.780Z,5.73
2019-03-08T02:24:47.707Z,6.27
2019-03-08T02:29:44.751Z,5.20
2019-03-08T02:34:41.678Z,5.60
2019-03-08T02:39:38.676Z,5.73
2019-03-08T02:44:35.709Z,5.90
2019-03-08T02:49:32.658Z,7.53
2019-03-08T02:54:29.596Z,6.10
2019-03-08T02:59:26.711Z,6.10
2019-03-08T03:04:23.724Z,6.73
2019-03-08T03:09:20.688Z,5.03
2019-03-08T03:14:17.611Z,6.43
2019-03-08T03:19:14.727Z,5.07
2019-03-08T03:24:11.761Z,5.03
2019-03-08T03:29:08.811Z,6.63
2019-03-08T03:34:05.749Z,5.63
2019-03-08T03:39:04.939Z,7.53
2019-03-08T03:44:02.037Z,7.57
2019-03-08T03:48:59.103Z,5.90
2019-03-08T03:53:56.169Z,7.60
2019-03-08T03:58:53.234Z,7.73
2019-03-08T04:03:51.119Z,6.60
2019-03-08T04:08:48.448Z,6.50
2019-03-08T04:13:45.388Z,6.70
2019-03-08T04:18:42.570Z,6.27
2019-03-08T04:23:39.814Z,7.37
2019-03-08T04:28:36.861Z,6.27
2019-03-08T04:33:33.789Z,6.93
2019-03-08T04:38:31.633Z,7.17
2019-03-08T04:43:28.678Z,6.57
2019-03-08T04:48:25.658Z,5.87
2019-03-08T04:53:22.794Z,7.37
2019-03-08T04:58:19.866Z,7.63
2019-03-08T05:03:16.821Z,7.70
2019-03-08T05:08:13.929Z,7.20
2019-03-08T05:13:10.872Z,7.47
2019-03-08T05:18:07.991Z,7.93
2019-03-08T05:23:05.029Z,5.90
2019-03-08T05:28:02.201Z,7.10
2019-03-08T05:32:59.224Z,7.70
2019-03-08T05:37:56.206Z,6.90
2019-03-08T05:42:53.213Z,6.60
2019-03-08T05:47:50.211Z,6.37
2019-03-08T05:52:47.136Z,7.97
2019-03-08T05:57:44.208Z,6.60
2019-03-08T06:02:41.180Z,7.03
2019-03-08T06:07:38.269Z,6.37
2019-03-08T06:12:35.298Z,7.00
2019-03-08T06:17:32.484Z,7.23
2019-03-08T06:22:29.464Z,8.07
2019-03-08T06:27:26.624Z,9.67
2019-03-08T06:32:23.673Z,6.17
2019-03-08T06:37:20.766Z,8.37
2019-03-08T06:42:17.797Z,6.30
2019-03-08T06:47:14.909Z,7.00
2019-03-08T06:52:11.962Z,7.93
2019-03-08T06:57:09.313Z,7.10
2019-03-08T07:02:06.249Z,7.27
2019-03-08T07:07:03.207Z,6.67
2019-03-08T07:12:00.466Z,6.60
2019-03-08T07:16:58.370Z,7.27
2019-03-08T07:21:59.117Z,7.10
2019-03-08T07:26:58.387Z,5.73
2019-03-08T07:32:14.237Z,6.87
2019-03-08T07:37:15.956Z,7.30
2019-03-08T07:42:12.937Z,5.83
2019-03-08T07:47:28.327Z,5.10
2019-03-08T07:52:33.235Z,6.23
2019-03-08T07:57:34.607Z,5.60
2019-03-08T08:02:34.408Z,5.10
2019-03-08T08:07:38.814Z,5.83
2019-03-08T08:12:54.550Z,5.20
2019-03-08T08:17:53.399Z,6.40
2019-03-08T08:22:58.732Z,5.70
2019-03-08T08:27:57.462Z,5.13
2019-03-08T08:33:09.582Z,5.47
2019-03-08T08:38:12.442Z,5.93
2019-03-08T08:43:11.332Z,6.27
2019-03-08T08:48:22.440Z,5.57
2019-03-08T08:53:22.046Z,5.50
2019-03-08T08:58:31.270Z,5.07
2019-03-08T09:03:43.543Z,7.37
2019-03-08T09:08:59.026Z,7.33
2019-03-08T09:14:06.740Z,6.03
2019-03-08T09:19:07.101Z,5.13
2019-03-08T09:24:09.951Z,4.50
2019-03-08T09:29:19.638Z,4.07
2019-03-08T09:34:22.470Z,4.90
2019-03-08T09:39:21.411Z,4.10
2019-03-08T09:44:21.396Z,3.87
2019-03-08T09:49:20.164Z,3.80
2019-03-08T09:54:19.673Z,4.47
2019-03-08T09:59:24.243Z,3.97
2019-03-08T10:04:22.994Z,3.80
2019-03-08T10:09:23.847Z,3.97
2019-03-08T10:14:22.667Z,2.83
2019-03-08T10:19:40.174Z,5.77
2019-03-08T10:24:40.161Z,5.10
2019-03-08T10:29:55.401Z,3.63
2019-03-08T10:40:32.132Z,4.20
2019-03-08T10:45:33.703Z,4.17
2019-03-08T10:50:38.888Z,4.30
2019-03-08T10:55:35.797Z,3.73
2019-03-08T11:00:34.971Z,4.03
2019-03-08T11:05:31.974Z,4.33
2019-03-08T11:10:48.673Z,5.87
2019-03-08T11:15:48.977Z,3.87
2019-03-08T11:21:01.918Z,3.67
2019-03-08T11:26:15.119Z,3.90
2019-03-08T11:31:18.846Z,3.57
2019-03-08T11:36:33.968Z,2.77
2019-03-08T11:41:32.723Z,5.07
2019-03-08T11:46:36.072Z,3.97
2019-03-08T11:51:56.198Z,2.67
2019-03-08T11:57:11.713Z,3.00
2019-03-08T12:02:14.773Z,2.80
2019-03-08T12:07:16.341Z,2.73
2019-03-08T12:12:13.364Z,3.33
2019-03-08T12:17:24.273Z,2.57
2019-03-08T12:22:25.454Z,2.17
2019-03-08T12:27:30.443Z,3.23
2019-03-08T12:32:46.343Z,2.27
2019-03-08T12:37:43.168Z,3.03
2019-03-08T12:42:40.119Z,3.50
2019-03-08T12:47:43.500Z,2.17
2019-03-08T12:52:46.338Z,1.90
2019-03-08T12:57:54.315Z,3.00
2019-03-08T13:03:09.533Z,2.50
2019-03-08T13:08:18.936Z,3.53
2019-03-08T13:13:16.111Z,3.13
2019-03-08T13:18:13.089Z,3.87
2019-03-08T13:23:10.570Z,4.17
2019-03-08T13:28:07.652Z,3.50
2019-03-08T13:33:04.696Z,4.03
2019-03-08T13:38:01.796Z,5.20
2019-03-08T13:43:02.365Z,4.27
2019-03-08T13:47:59.390Z,4.00
2019-03-08T13:52:56.998Z,5.70
2019-03-08T13:57:54.689Z,5.80
2019-03-08T14:02:51.736Z,3.60
2019-03-08T14:07:49.020Z,4.57
2019-03-08T14:12:46.055Z,4.70
2019-03-08T14:17:48.385Z,4.73
2019-03-08T14:22:45.443Z,6.03
2019-03-08T14:27:43.492Z,5.13
2019-03-08T14:32:40.775Z,4.17
2019-03-08T14:37:40.561Z,5.53
2019-03-08T14:42:41.616Z,4.57
2019-03-08T14:47:40.613Z,5.17
2019-03-08T14:52:37.560Z,3.83
2019-03-08T14:57:35.644Z,4.37
2019-03-08T15:02:32.899Z,4.50
2019-03-08T15:07:30.130Z,3.80
2019-03-08T15:12:27.133Z,5.33
2019-03-08T15:17:24.255Z,7.57
2019-03-08T15:22:21.321Z,4.30
2019-03-08T15:27:19.210Z,4.67
2019-03-08T15:32:18.581Z,5.27
2019-03-08T15:37:15.941Z,3.83
2019-03-08T15:42:12.983Z,4.60
2019-03-08T15:47:12.259Z,6.07
2019-03-08T15:52:09.340Z,5.27
2019-03-08T15:57:06.622Z,4.87
2019-03-08T16:02:06.185Z,6.73
2019-03-08T16:07:02.662Z,4.70
2019-03-08T16:11:59.797Z,6.57
2019-03-08T16:16:58.698Z,6.20
2019-03-08T16:21:55.649Z,6.73
2019-03-08T16:26:52.639Z,6.63
2019-03-08T16:31:59.770Z,5.53
2019-03-08T16:37:01.451Z,6.73
2019-03-08T16:42:16.759Z,9.20
2019-03-08T16:47:32.750Z,6.90
2019-03-08T16:52:35.579Z,14.23
2019-03-08T16:57:40.284Z,6.67
2019-03-08T17:02:40.007Z,7.30
2019-03-08T17:07:38.879Z,8.10
2019-03-08T17:12:37.817Z,12.67
2019-03-08T17:17:37.569Z,8.90
2019-03-08T17:22:34.391Z,9.67
2019-03-08T17:27:49.967Z,9.63
2019-03-08T17:33:00.810Z,7.97
2019-03-08T17:38:01.724Z,5.80
2019-03-08T17:43:12.485Z,5.73
2019-03-08T17:48:27.866Z,8.23
2019-03-08T17:53:32.325Z,6.43
2019-03-08T17:58:33.605Z,5.73
2019-03-08T18:03:32.436Z,5.67
2019-03-08T18:08:35.490Z,5.40
2019-03-08T18:13:50.651Z,5.90
2019-03-08T18:18:55.590Z,7.13
2019-03-08T18:24:10.800Z,11.20
2019-03-08T18:29:27.803Z,6.93
2019-03-08T18:34:27.579Z,7.70
2019-03-08T18:39:43.143Z,10.13
2019-03-08T18:44:55.574Z,6.43
2019-03-08T18:50:00.693Z,12.87
2019-03-08T18:55:11.799Z,9.00
2019-03-08T19:00:30.732Z,9.50
2019-03-08T19:05:29.571Z,6.10
2019-03-08T19:10:44.858Z,6.20
2019-03-08T19:15:44.770Z,9.60
2019-03-08T19:20:49.706Z,8.33
2019-03-08T19:25:46.663Z,6.17
2019-03-08T19:30:45.548Z,4.17
2019-03-08T19:35:53.509Z,3.93
2019-03-08T19:41:09.523Z,5.83
2019-03-08T19:46:14.768Z,4.73
2019-03-08T19:51:17.347Z,6.53
2019-03-08T19:56:25.205Z,4.60
2019-03-08T20:01:25.131Z,5.10
2019-03-08T20:06:25.095Z,4.30
2019-03-08T20:11:28.238Z,7.50
2019-03-08T20:16:27.147Z,6.80
2019-03-08T20:21:26.409Z,6.77
2019-03-08T20:26:29.187Z,6.17
2019-03-08T20:31:28.026Z,6.30
2019-03-08T20:36:24.915Z,9.80
2019-03-08T20:41:35.953Z,7.67
2019-03-08T20:46:35.272Z,6.47
2019-03-08T20:51:32.367Z,7.07
2019-03-08T20:56:32.623Z,6.93
2019-03-08T21:01:29.746Z,7.13
2019-03-08T21:06:26.733Z,7.77
2019-03-08T21:11:24.596Z,8.10
2019-03-08T21:16:21.931Z,8.57
2019-03-08T21:21:19.220Z,7.80
2019-03-08T21:26:16.454Z,7.23
2019-03-08T21:31:13.625Z,8.23
2019-03-08T21:36:10.722Z,6.50
2019-03-08T21:41:07.821Z,6.93
2019-03-08T21:46:05.711Z,7.73
2019-03-08T21:51:02.758Z,8.07
2019-03-08T21:55:59.776Z,5.10
2019-03-08T22:00:56.886Z,6.97
2019-03-08T22:05:53.882Z,5.57
2019-03-08T22:11:03.335Z,4.30
2019-03-08T22:16:00.390Z,6.20
2019-03-08T22:20:57.476Z,6.90
2019-03-08T22:25:54.517Z,5.60
2019-03-08T22:30:51.589Z,4.77
2019-03-08T22:35:48.806Z,5.90
2019-03-08T22:40:45.978Z,6.30
2019-03-08T22:45:42.998Z,5.30
2019-03-08T22:50:40.068Z,4.67
2019-03-08T22:55:37.154Z,4.17
2019-03-08T23:00:53.409Z,3.83
2019-03-08T23:05:50.449Z,4.70
2019-03-08T23:10:47.441Z,3.43
2019-03-08T23:15:45.681Z,5.10
2019-03-08T23:20:42.828Z,3.83
2019-03-08T23:25:40.151Z,4.60
2019-03-08T23:30:37.267Z,4.43
2019-03-08T23:35:34.284Z,5.90
2019-03-08T23:40:31.399Z,5.33
2019-03-08T23:45:28.371Z,6.73
2019-03-08T23:50:25.436Z,7.50
2019-03-08T23:55:22.515Z,7.00
